createdAt,value
2019-06-27T00:02:10.165Z,23.20
2019-06-27T00:04:39.908Z,23.20
2019-06-27T00:07:09.626Z,23.10
2019-06-27T00:09:39.418Z,23.10
2019-06-27T00:12:09.650Z,23.10
2019-06-27T00:14:39.342Z,23.10
2019-06-27T00:17:09.501Z,23.00
2019-06-27T00:19:39.446Z,22.90
2019-06-27T00:22:09.421Z,22.90
2019-06-27T00:24:39.499Z,22.80
2019-06-27T00:27:09.633Z,22.80
2019-06-27T00:29:39.606Z,22.70
2019-06-27T00:32:09.878Z,22.70
2019-06-27T00:34:39.771Z,22.60
2019-06-27T00:37:10.404Z,22.60
2019-06-27T00:39:40.428Z,22.50
2019-06-27T00:42:10.249Z,22.50
2019-06-27T00:44:40.666Z,22.40
2019-06-27T00:47:10.592Z,22.30
2019-06-27T00:49:40.592Z,22.20
2019-06-27T00:52:10.709Z,22.10
2019-06-27T00:54:42.900Z,22.10
2019-06-27T00:57:14.523Z,22.00
2019-06-27T00:59:45.305Z,21.90
2019-06-27T01:02:14.754Z,21.80
2019-06-27T01:04:44.176Z,21.80
2019-06-27T01:07:13.566Z,21.70
2019-06-27T01:09:43.008Z,21.60
2019-06-27T01:12:12.427Z,21.60
2019-06-27T01:14:42.049Z,21.50
2019-06-27T01:17:12.503Z,21.50
2019-06-27T01:19:42.729Z,21.40
2019-06-27T01:22:12.849Z,21.40
2019-06-27T01:24:42.898Z,21.40
2019-06-27T01:27:28.853Z,21.30
2019-06-27T01:29:44.091Z,21.30
2019-06-27T01:32:13.803Z,21.30
2019-06-27T01:34:43.546Z,21.20
2019-06-27T01:37:13.775Z,21.20
2019-06-27T01:39:43.495Z,21.10
2019-06-27T01:42:13.560Z,21.10
2019-06-27T01:44:45.552Z,21.00
2019-06-27T01:47:15.252Z,21.00
2019-06-27T01:49:44.970Z,20.90
2019-06-27T01:52:34.001Z,20.90
2019-06-27T01:55:04.437Z,20.90
2019-06-27T01:57:46.191Z,20.80
2019-06-27T02:00:08.605Z,20.80
2019-06-27T02:02:38.288Z,20.80
2019-06-27T02:05:09.429Z,20.70
2019-06-27T02:07:39.143Z,20.70
2019-06-27T02:10:10.038Z,20.60
2019-06-27T02:12:39.474Z,20.60
2019-06-27T02:15:10.313Z,20.60
2019-06-27T02:17:39.717Z,20.60
2019-06-27T02:20:11.391Z,20.50
2019-06-27T02:22:40.790Z,20.50
2019-06-27T02:25:11.009Z,20.40
2019-06-27T02:27:40.415Z,20.40
2019-06-27T02:30:12.338Z,20.30
2019-06-27T02:32:41.735Z,20.30
2019-06-27T02:35:12.105Z,20.30
2019-06-27T02:37:41.785Z,20.30
2019-06-27T02:40:12.418Z,20.20
2019-06-27T02:42:42.249Z,20.20
2019-06-27T02:45:12.361Z,20.20
2019-06-27T02:47:41.787Z,20.10
2019-06-27T02:50:11.596Z,20.10
2019-06-27T02:52:41.006Z,20.10
2019-06-27T02:55:10.561Z,20.00
2019-06-27T02:57:40.281Z,20.00
2019-06-27T03:00:10.065Z,19.90
2019-06-27T03:02:39.491Z,19.90
2019-06-27T03:05:10.922Z,19.80
2019-06-27T03:07:40.331Z,19.80
2019-06-27T03:10:10.444Z,19.70
2019-06-27T03:12:40.175Z,19.70
2019-06-27T03:15:10.280Z,19.60
2019-06-27T03:17:40.100Z,19.60
2019-06-27T03:20:09.593Z,19.50
2019-06-27T03:22:38.990Z,19.50
2019-06-27T03:25:08.685Z,19.50
2019-06-27T03:27:38.342Z,19.50
2019-06-27T03:30:09.149Z,19.40
2019-06-27T03:32:38.974Z,19.40
2019-06-27T03:35:08.886Z,19.40
2019-06-27T03:37:38.287Z,19.40
2019-06-27T03:40:09.865Z,19.30
2019-06-27T03:42:39.545Z,19.30
2019-06-27T03:45:15.151Z,19.30
2019-06-27T03:47:41.100Z,19.30
2019-06-27T03:50:11.214Z,19.20
2019-06-27T03:52:40.645Z,19.20
2019-06-27T03:55:10.866Z,19.30
2019-06-27T03:57:44.672Z,19.20
2019-06-27T04:00:13.685Z,19.30
2019-06-27T04:02:43.090Z,19.20
2019-06-27T04:05:12.778Z,19.30
2019-06-27T04:07:42.196Z,19.30
2019-06-27T04:10:16.860Z,19.30
2019-06-27T04:12:43.370Z,19.30
2019-06-27T04:15:13.018Z,19.40
2019-06-27T04:17:42.437Z,19.40
2019-06-27T04:20:14.515Z,19.40
2019-06-27T04:22:43.992Z,19.40
2019-06-27T04:25:14.139Z,19.50
2019-06-27T04:27:43.787Z,19.50
2019-06-27T04:30:13.783Z,19.50
2019-06-27T04:32:43.449Z,19.50
2019-06-27T04:35:13.588Z,19.60
2019-06-27T04:37:43.324Z,19.60
2019-06-27T04:40:12.865Z,19.70
2019-06-27T04:42:42.915Z,19.70
2019-06-27T04:45:12.448Z,19.80
2019-06-27T04:47:41.902Z,19.90
2019-06-27T04:50:11.790Z,19.90
2019-06-27T04:52:41.223Z,19.90
2019-06-27T04:55:10.635Z,19.90
2019-06-27T04:57:40.454Z,20.00
2019-06-27T05:00:10.653Z,20.00
2019-06-27T05:02:40.154Z,20.10
2019-06-27T05:05:09.882Z,20.10
2019-06-27T05:07:39.332Z,20.10
2019-06-27T05:10:08.905Z,20.20
2019-06-27T05:12:38.333Z,20.20
2019-06-27T05:15:09.104Z,20.20
2019-06-27T05:17:38.520Z,20.20
2019-06-27T05:20:09.595Z,20.20
2019-06-27T05:22:39.009Z,20.30
2019-06-27T05:25:08.882Z,20.20
2019-06-27T05:27:38.543Z,20.20
2019-06-27T05:30:10.276Z,20.20
2019-06-27T05:32:41.492Z,20.10
2019-06-27T05:35:11.153Z,20.10
2019-06-27T05:37:40.548Z,20.10
2019-06-27T05:40:10.586Z,20.10
2019-06-27T05:42:40.419Z,20.00
2019-06-27T05:45:10.090Z,20.00
2019-06-27T05:47:39.510Z,19.90
2019-06-27T05:50:09.887Z,19.90
2019-06-27T05:52:51.573Z,19.90
2019-06-27T05:55:21.048Z,19.80
2019-06-27T05:57:50.524Z,19.80
2019-06-27T06:07:06.789Z,19.90
2019-06-27T06:09:36.607Z,19.80
2019-06-27T06:12:06.406Z,19.80
2019-06-27T06:14:35.799Z,19.80
2019-06-27T06:17:05.534Z,19.80
2019-06-27T06:19:34.931Z,19.80
2019-06-27T06:22:04.368Z,19.90
2019-06-27T06:24:33.820Z,19.90
2019-06-27T06:27:03.251Z,19.90
2019-06-27T06:29:32.933Z,19.90
2019-06-27T06:32:02.827Z,20.00
2019-06-27T06:34:32.454Z,20.00
2019-06-27T06:37:01.854Z,20.00
2019-06-27T06:39:31.295Z,20.10
2019-06-27T06:42:00.665Z,20.10
2019-06-27T06:44:30.135Z,20.20
2019-06-27T06:46:59.959Z,20.30
2019-06-27T06:49:29.783Z,20.30
2019-06-27T06:51:59.548Z,20.40
2019-06-27T06:54:29.416Z,20.50
2019-06-27T06:56:58.909Z,20.70
2019-06-27T06:59:28.411Z,20.90
2019-06-27T07:01:58.425Z,21.10
2019-06-27T07:04:28.257Z,21.40
2019-06-27T07:06:59.267Z,21.70
2019-06-27T07:09:28.998Z,22.00
2019-06-27T07:11:58.400Z,22.30
2019-06-27T07:14:27.827Z,22.50
2019-06-27T07:16:57.597Z,22.80
2019-06-27T07:19:27.301Z,23.10
2019-06-27T07:21:57.027Z,23.40
2019-06-27T07:24:26.731Z,23.60
2019-06-27T07:26:56.430Z,23.90
2019-06-27T07:29:26.171Z,24.10
2019-06-27T07:31:55.553Z,24.30
2019-06-27T07:34:24.986Z,24.50
2019-06-27T07:36:54.371Z,24.70
2019-06-27T07:39:23.777Z,24.90
2019-06-27T07:41:53.243Z,25.00
2019-06-27T07:44:22.989Z,25.20
2019-06-27T07:46:52.681Z,25.30
2019-06-27T07:49:22.100Z,25.50
2019-06-27T07:51:51.497Z,25.70
2019-06-27T07:54:21.191Z,26.00
2019-06-27T07:56:50.691Z,26.30
2019-06-27T07:59:27.797Z,26.60
2019-06-27T08:01:57.232Z,26.90
2019-06-27T08:04:26.991Z,27.30
2019-06-27T08:06:56.698Z,27.70
2019-06-27T08:09:26.124Z,28.10
2019-06-27T08:11:55.815Z,28.40
2019-06-27T08:14:26.898Z,28.80
2019-06-27T08:16:56.356Z,29.20
2019-06-27T08:19:26.060Z,29.60
2019-06-27T08:21:55.499Z,29.90
2019-06-27T08:24:24.935Z,30.30
2019-06-27T08:26:54.355Z,30.50
2019-06-27T08:29:24.085Z,30.70
2019-06-27T08:31:53.790Z,31.00
2019-06-27T08:34:23.501Z,31.00
2019-06-27T08:36:53.036Z,31.10
2019-06-27T08:39:22.459Z,31.30
2019-06-27T08:41:51.875Z,31.50
2019-06-27T08:44:21.278Z,31.60
2019-06-27T08:46:51.347Z,31.70
2019-06-27T08:49:21.432Z,31.90
2019-06-27T08:51:51.683Z,32.20
2019-06-27T08:54:21.669Z,32.30
2019-06-27T08:56:52.112Z,32.40
2019-06-27T08:59:22.496Z,32.60
2019-06-27T09:02:07.291Z,32.70
2019-06-27T09:04:23.489Z,32.90
2019-06-27T09:06:53.197Z,33.00
2019-06-27T09:09:22.900Z,33.20
2019-06-27T09:11:52.317Z,33.40
2019-06-27T09:14:22.953Z,33.40
2019-06-27T09:16:52.667Z,33.50
2019-06-27T09:19:23.081Z,33.60
2019-06-27T09:21:53.311Z,33.60
2019-06-27T09:24:23.328Z,33.60
2019-06-27T09:26:53.137Z,33.60
2019-06-27T09:29:23.104Z,33.60
2019-06-27T09:31:53.256Z,33.70
2019-06-27T09:34:23.535Z,33.80
2019-06-27T09:36:53.803Z,33.90
2019-06-27T09:39:26.897Z,33.90
2019-06-27T09:41:54.701Z,33.90
2019-06-27T09:44:24.097Z,34.00
2019-06-27T09:46:54.252Z,34.00
2019-06-27T09:49:23.786Z,34.00
2019-06-27T09:51:54.040Z,34.00
2019-06-27T09:54:24.210Z,33.90
2019-06-27T09:56:54.366Z,33.90
2019-06-27T09:59:24.458Z,33.90
2019-06-27T10:01:54.894Z,33.90
2019-06-27T10:04:25.019Z,34.00
2019-06-27T10:06:55.000Z,34.00
2019-06-27T10:09:25.234Z,34.00
2019-06-27T10:11:54.997Z,33.80
2019-06-27T10:14:25.180Z,33.60
2019-06-27T10:16:58.502Z,33.50
2019-06-27T10:19:26.392Z,33.40
2019-06-27T10:21:55.794Z,33.40
2019-06-27T10:24:25.605Z,33.40
2019-06-27T10:26:55.572Z,33.60
2019-06-27T10:29:26.969Z,33.60
2019-06-27T10:31:56.713Z,33.80
2019-06-27T10:34:26.539Z,33.90
2019-06-27T10:36:56.057Z,34.00
2019-06-27T10:39:26.209Z,34.20
2019-06-27T10:41:56.245Z,34.30
2019-06-27T10:44:26.179Z,34.30
2019-06-27T10:46:56.280Z,34.20
2019-06-27T10:49:26.597Z,34.20
2019-06-27T10:51:56.639Z,34.20
2019-06-27T10:54:26.861Z,34.20
2019-06-27T10:56:56.547Z,34.20
2019-06-27T10:59:26.995Z,34.20
2019-06-27T11:01:56.959Z,34.30
2019-06-27T11:04:27.250Z,34.40
2019-06-27T11:06:57.236Z,34.40
2019-06-27T11:09:27.060Z,34.40
2019-06-27T11:11:57.151Z,34.40
2019-06-27T11:14:27.296Z,34.40
2019-06-27T11:16:57.493Z,34.40
2019-06-27T11:19:27.643Z,34.30
2019-06-27T11:21:57.740Z,34.30
2019-06-27T11:24:27.899Z,34.30
2019-06-27T11:26:58.001Z,34.20
2019-06-27T11:29:28.106Z,34.10
2019-06-27T11:31:58.277Z,34.00
2019-06-27T11:34:28.310Z,33.90
2019-06-27T11:36:58.422Z,33.80
2019-06-27T11:39:28.671Z,33.70
2019-06-27T11:41:58.785Z,33.60
2019-06-27T11:44:28.827Z,33.50
2019-06-27T11:46:58.920Z,33.40
2019-06-27T11:49:28.837Z,33.30
2019-06-27T11:51:59.128Z,33.30
2019-06-27T11:54:28.869Z,33.20
2019-06-27T11:56:59.030Z,33.20
2019-06-27T11:59:29.033Z,33.10
2019-06-27T12:01:59.029Z,33.00
2019-06-27T12:04:29.300Z,32.90
2019-06-27T12:06:59.426Z,32.70
2019-06-27T12:09:29.407Z,32.70
2019-06-27T12:11:59.233Z,32.40
2019-06-27T12:14:29.557Z,32.30
2019-06-27T12:16:59.411Z,32.10
2019-06-27T12:19:29.439Z,32.10
2019-06-27T12:21:59.460Z,32.00
2019-06-27T12:24:29.669Z,31.80
2019-06-27T12:26:59.802Z,31.70
2019-06-27T12:29:29.924Z,31.70
2019-06-27T12:32:00.304Z,31.60
2019-06-27T12:34:30.968Z,31.60
2019-06-27T12:37:00.491Z,31.50
2019-06-27T12:39:30.443Z,31.50
2019-06-27T12:42:00.734Z,31.40
2019-06-27T12:44:30.859Z,31.30
2019-06-27T12:47:01.053Z,31.30
2019-06-27T12:49:49.691Z,31.20
2019-06-27T12:52:14.547Z,31.10
2019-06-27T12:54:44.514Z,31.10
2019-06-27T12:57:13.907Z,31.00
2019-06-27T12:59:43.336Z,31.00
2019-06-27T13:02:12.878Z,31.00
2019-06-27T13:04:42.640Z,30.90
2019-06-27T13:07:12.391Z,30.80
2019-06-27T13:09:42.301Z,30.70
2019-06-27T13:12:11.808Z,30.60
2019-06-27T13:14:41.221Z,30.60
2019-06-27T13:17:10.827Z,30.50
2019-06-27T13:19:40.209Z,30.50
2019-06-27T13:22:09.711Z,30.50
2019-06-27T13:24:39.248Z,30.50
2019-06-27T13:27:09.195Z,30.50
2019-06-27T13:29:38.630Z,30.50
2019-06-27T13:32:08.309Z,30.40
2019-06-27T13:34:40.889Z,30.40
2019-06-27T13:37:09.252Z,30.30
2019-06-27T13:39:38.899Z,30.30
2019-06-27T13:42:08.324Z,30.30
2019-06-27T13:44:37.785Z,30.30
2019-06-27T13:47:07.446Z,30.30
2019-06-27T13:49:36.866Z,30.40
2019-06-27T13:52:06.349Z,30.30
2019-06-27T13:54:35.802Z,30.30
2019-06-27T13:57:05.567Z,30.30
2019-06-27T13:59:35.430Z,30.20
2019-06-27T14:02:05.246Z,30.20
2019-06-27T14:04:35.468Z,30.20
2019-06-27T14:07:05.611Z,30.20
2019-06-27T14:09:50.842Z,30.20
2019-06-27T14:12:06.767Z,30.20
2019-06-27T14:14:36.350Z,30.20
2019-06-27T14:17:05.789Z,30.20
2019-06-27T14:19:35.785Z,30.20
2019-06-27T14:22:05.999Z,30.20
2019-06-27T14:24:36.027Z,30.20
2019-06-27T14:27:06.056Z,30.10
2019-06-27T14:29:36.245Z,30.10
2019-06-27T14:32:06.699Z,30.10
2019-06-27T14:34:36.653Z,30.00
2019-06-27T14:37:06.873Z,30.00
2019-06-27T14:39:36.729Z,30.00
2019-06-27T14:42:07.195Z,29.90
2019-06-27T14:44:37.090Z,29.80
2019-06-27T14:47:07.406Z,29.80
2019-06-27T14:49:37.403Z,29.70
2019-06-27T14:52:07.378Z,29.70
2019-06-27T14:54:37.733Z,29.70
2019-06-27T14:57:08.178Z,29.70
2019-06-27T14:59:37.663Z,29.60
2019-06-27T15:02:08.460Z,29.60
2019-06-27T15:04:38.637Z,29.50
2019-06-27T15:07:08.494Z,29.50
2019-06-27T15:09:38.333Z,29.40
2019-06-27T15:12:08.098Z,29.30
2019-06-27T15:14:38.171Z,29.20
2019-06-27T15:17:09.879Z,29.20
2019-06-27T15:19:39.704Z,29.10
2019-06-27T15:22:49.827Z,29.00
2019-06-27T15:24:57.449Z,29.00
2019-06-27T15:27:27.197Z,28.90
2019-06-27T15:29:57.013Z,28.90
2019-06-27T15:32:26.468Z,28.90
2019-06-27T15:34:56.119Z,28.80
2019-06-27T15:37:25.815Z,28.80
2019-06-27T15:39:55.228Z,28.80
2019-06-27T15:42:24.884Z,28.80
2019-06-27T15:44:54.657Z,28.80
2019-06-27T15:47:24.411Z,28.80
2019-06-27T15:49:53.850Z,28.80
2019-06-27T15:52:23.578Z,28.80
2019-06-27T15:54:52.990Z,28.80
2019-06-27T15:57:22.386Z,28.80
2019-06-27T15:59:52.071Z,28.70
2019-06-27T16:02:21.530Z,28.60
2019-06-27T16:04:51.385Z,28.60
2019-06-27T16:07:20.783Z,28.50
2019-06-27T16:09:50.200Z,28.50
2019-06-27T16:12:19.819Z,28.40
2019-06-27T16:14:49.222Z,28.30
2019-06-27T16:17:18.608Z,28.30
2019-06-27T16:19:48.313Z,28.30
2019-06-27T16:22:17.705Z,28.20
2019-06-27T16:24:47.169Z,28.20
2019-06-27T16:27:17.033Z,28.10
2019-06-27T16:29:46.660Z,28.10
2019-06-27T16:32:16.343Z,28.10
2019-06-27T16:34:45.747Z,28.00
2019-06-27T16:37:15.559Z,28.00
2019-06-27T16:39:45.257Z,28.00
2019-06-27T16:42:14.981Z,27.90
2019-06-27T16:44:44.790Z,27.90
2019-06-27T16:47:14.494Z,27.80
2019-06-27T16:49:44.285Z,27.80
2019-06-27T16:52:14.529Z,27.70
2019-06-27T16:54:44.697Z,27.60
2019-06-27T16:57:15.170Z,27.60
2019-06-27T16:59:44.966Z,27.50
2019-06-27T17:02:15.552Z,27.50
2019-06-27T17:04:45.633Z,27.50
2019-06-27T17:07:15.842Z,27.50
2019-06-27T17:09:45.973Z,27.50
2019-06-27T17:12:16.333Z,27.50
2019-06-27T17:14:46.507Z,27.50
2019-06-27T17:17:16.412Z,27.50
2019-06-27T17:19:46.489Z,27.50
2019-06-27T17:22:16.582Z,27.40
2019-06-27T17:24:46.650Z,27.40
2019-06-27T17:27:16.683Z,27.30
2019-06-27T17:29:47.123Z,27.30
2019-06-27T17:32:17.108Z,27.20
2019-06-27T17:34:47.207Z,27.10
2019-06-27T17:37:18.721Z,27.10
2019-06-27T17:39:48.443Z,27.10
2019-06-27T17:42:17.871Z,27.00
2019-06-27T17:44:47.949Z,27.00
2019-06-27T17:47:17.839Z,26.90
2019-06-27T17:49:49.246Z,26.90
2019-06-27T17:52:18.669Z,26.80
2019-06-27T17:54:48.520Z,26.80
2019-06-27T17:57:18.637Z,26.70
2019-06-27T17:59:48.953Z,26.70
2019-06-27T18:02:18.447Z,26.70
2019-06-27T18:04:48.988Z,26.70
2019-06-27T18:07:18.780Z,26.70
2019-06-27T18:09:48.914Z,26.60
2019-06-27T18:12:19.033Z,26.50
2019-06-27T18:14:49.177Z,26.50
2019-06-27T18:17:32.591Z,26.50
2019-06-27T18:19:50.455Z,26.50
2019-06-27T18:22:20.249Z,26.50
2019-06-27T18:24:49.677Z,26.50
2019-06-27T18:27:19.651Z,26.40
2019-06-27T18:29:50.994Z,26.40
2019-06-27T18:32:20.431Z,26.30
2019-06-27T18:34:50.020Z,26.30
2019-06-27T18:37:29.216Z,26.30
2019-06-27T18:39:51.674Z,26.30
2019-06-27T18:42:21.082Z,26.20
2019-06-27T18:44:50.463Z,26.20
2019-06-27T18:47:20.615Z,26.20
2019-06-27T18:49:50.761Z,26.10
2019-06-27T18:52:20.979Z,26.10
2019-06-27T18:54:50.924Z,26.00
2019-06-27T18:57:21.059Z,26.00
2019-06-27T18:59:53.640Z,25.90
2019-06-27T19:02:22.671Z,25.90
2019-06-27T19:04:52.157Z,25.90
2019-06-27T19:07:21.573Z,25.80
2019-06-27T19:09:51.791Z,25.80
2019-06-27T19:12:22.307Z,25.70
2019-06-27T19:14:51.709Z,25.60
2019-06-27T19:17:22.231Z,25.60
2019-06-27T19:19:54.024Z,25.50
2019-06-27T19:22:25.430Z,25.50
2019-06-27T19:24:56.493Z,25.40
2019-06-27T19:27:25.887Z,25.30
2019-06-27T19:29:55.322Z,25.30
2019-06-27T19:32:24.998Z,25.20
2019-06-27T19:34:55.472Z,25.10
2019-06-27T19:37:24.898Z,25.00
2019-06-27T19:39:54.335Z,24.90
2019-06-27T19:42:24.140Z,24.80
2019-06-27T19:44:53.874Z,24.80
2019-06-27T19:47:23.563Z,24.70
2019-06-27T19:49:53.036Z,24.60
2019-06-27T19:52:23.038Z,24.50
2019-06-27T19:54:53.391Z,24.50
2019-06-27T19:57:23.185Z,24.40
2019-06-27T19:59:53.516Z,24.30
2019-06-27T20:02:23.461Z,24.20
2019-06-27T20:04:53.363Z,24.10
2019-06-27T20:07:23.489Z,24.00
2019-06-27T20:09:53.643Z,23.90
2019-06-27T20:12:23.677Z,23.80
2019-06-27T20:14:54.254Z,23.70
2019-06-27T20:17:23.916Z,23.60
2019-06-27T20:19:53.975Z,23.50
2019-06-27T20:22:24.534Z,23.40
2019-06-27T20:24:54.087Z,23.30
2019-06-27T20:27:24.195Z,23.30
2019-06-27T20:29:54.325Z,23.20
2019-06-27T20:32:32.326Z,23.10
2019-06-27T20:34:59.476Z,23.00
2019-06-27T20:37:29.218Z,22.90
2019-06-27T20:39:58.623Z,22.90
2019-06-27T20:42:28.309Z,22.80
2019-06-27T20:44:58.144Z,22.70
2019-06-27T20:47:27.619Z,22.70
2019-06-27T20:49:58.663Z,22.60
2019-06-27T20:52:28.085Z,22.60
2019-06-27T20:54:57.902Z,22.50
2019-06-27T20:57:27.697Z,22.50
2019-06-27T20:59:57.385Z,22.40
2019-06-27T21:02:27.101Z,22.30
2019-06-27T21:04:56.753Z,22.20
2019-06-27T21:07:26.415Z,22.20
2019-06-27T21:09:56.080Z,22.10
2019-06-27T21:12:26.445Z,22.10
2019-06-27T21:14:56.617Z,22.10
2019-06-27T21:17:26.672Z,22.00
2019-06-27T21:19:56.785Z,21.90
2019-06-27T21:22:27.441Z,21.90
2019-06-27T21:24:57.315Z,21.80
2019-06-27T21:27:27.328Z,21.80
2019-06-27T21:29:57.262Z,21.70
2019-06-27T21:32:31.789Z,21.70
2019-06-27T21:34:59.043Z,21.70
2019-06-27T21:37:28.544Z,21.60
2019-06-27T21:39:58.196Z,21.60
2019-06-27T21:42:28.078Z,21.50
2019-06-27T21:44:58.224Z,21.50
2019-06-27T21:47:28.615Z,21.40
2019-06-27T21:49:58.450Z,21.40
2019-06-27T21:52:28.330Z,21.30
2019-06-27T21:54:58.335Z,21.20
2019-06-27T21:57:28.619Z,21.20
2019-06-27T21:59:58.470Z,21.10
2019-06-27T22:02:28.601Z,21.10
2019-06-27T22:04:58.798Z,21.00
2019-06-27T22:07:28.760Z,21.00
2019-06-27T22:09:58.839Z,20.90
2019-06-27T22:12:29.174Z,20.90
2019-06-27T22:14:59.608Z,20.80
2019-06-27T22:17:29.307Z,20.80
2019-06-27T22:20:14.074Z,20.70
2019-06-27T22:22:30.884Z,20.70
2019-06-27T22:25:00.258Z,20.60
2019-06-27T22:27:30.070Z,20.60
2019-06-27T22:29:59.902Z,20.50
2019-06-27T22:32:30.453Z,20.50
2019-06-27T22:35:00.679Z,20.40
2019-06-27T22:37:29.880Z,20.40
2019-06-27T22:40:18.624Z,20.30
2019-06-27T22:43:06.407Z,20.30
2019-06-27T22:45:54.149Z,20.30
2019-06-27T22:48:23.061Z,20.20
2019-06-27T22:50:54.233Z,20.10
2019-06-27T22:53:31.404Z,20.10
2019-06-27T22:56:01.363Z,20.10
2019-06-27T22:58:31.519Z,20.00
2019-06-27T23:01:01.939Z,20.00
2019-06-27T23:03:31.761Z,19.90
2019-06-27T23:06:01.866Z,19.90
2019-06-27T23:08:32.128Z,19.90
2019-06-27T23:11:02.301Z,19.90
2019-06-27T23:13:32.317Z,19.90
2019-06-27T23:16:02.467Z,19.80
2019-06-27T23:18:32.585Z,19.80
2019-06-27T23:21:02.739Z,19.80
2019-06-27T23:23:32.827Z,19.80
2019-06-27T23:26:02.931Z,19.70
2019-06-27T23:28:33.331Z,19.70
2019-06-27T23:31:03.221Z,19.70
2019-06-27T23:33:33.529Z,19.70
2019-06-27T23:36:03.826Z,19.60
2019-06-27T23:38:33.983Z,19.60
2019-06-27T23:41:04.225Z,19.60
2019-06-27T23:43:34.102Z,19.60
2019-06-27T23:46:04.128Z,19.50
2019-06-27T23:48:34.468Z,19.50
2019-06-27T23:51:04.633Z,19.50
2019-06-27T23:53:34.507Z,19.50
2019-06-27T23:56:04.332Z,19.40
2019-06-27T23:58:34.621Z,19.40
